createdAt,value
2022-11-17T00:04:38.424Z,99707.38
2022-11-17T00:09:39.948Z,99703.09
2022-11-17T00:14:41.454Z,99686.53
2022-11-17T00:20:01.259Z,99677.00
2022-11-17T00:25:02.787Z,99667.53
2022-11-17T00:30:05.962Z,99658.88
2022-11-17T00:35:07.790Z,99634.59
2022-11-17T00:40:09.540Z,99618.97
2022-11-17T00:45:11.032Z,99619.88
2022-11-17T00:50:12.493Z,99604.22
2022-11-17T00:55:14.404Z,99586.94
2022-11-17T01:00:16.178Z,99569.66
2022-11-17T01:05:17.683Z,99560.97
2022-11-17T01:10:19.176Z,99562.72
2022-11-17T01:15:20.651Z,99563.59
2022-11-17T01:20:22.702Z,99544.59
2022-11-17T01:25:24.220Z,99530.66
2022-11-17T01:30:25.695Z,99521.19
2022-11-17T01:35:27.149Z,99514.19
2022-11-17T01:40:28.596Z,99505.44
2022-11-17T01:45:30.145Z,99514.88
2022-11-17T01:50:36.351Z,99507.06
2022-11-17T01:55:43.854Z,99513.88
2022-11-17T02:00:46.288Z,99494.75
2022-11-17T02:05:54.685Z,99486.00
2022-11-17T02:10:56.759Z,99491.97
2022-11-17T02:15:58.237Z,99479.81
2022-11-17T02:20:59.659Z,99451.34
2022-11-17T02:26:38.485Z,99442.63
2022-11-17T02:32:10.548Z,99439.13
2022-11-17T02:37:40.079Z,99431.38
2022-11-17T02:43:02.136Z,99424.38
2022-11-17T02:48:10.689Z,99430.50
2022-11-17T02:53:14.058Z,99416.63
2022-11-17T02:58:15.968Z,99420.06
2022-11-17T03:03:42.093Z,99419.94
2022-11-17T03:08:57.223Z,99421.75
2022-11-17T03:14:12.165Z,99414.94
2022-11-17T03:19:22.832Z,99388.81
2022-11-17T03:24:33.549Z,99406.13
2022-11-17T03:29:38.854Z,99403.56
2022-11-17T03:34:58.487Z,99390.56
2022-11-17T03:40:06.314Z,99388.00
2022-11-17T03:45:31.511Z,99368.13
2022-11-17T03:50:45.487Z,99356.84
2022-11-17T03:55:52.634Z,99340.47
2022-11-17T04:00:58.651Z,99342.22
2022-11-17T04:06:01.206Z,99342.22
2022-11-17T04:11:21.091Z,99337.84
2022-11-17T04:16:22.556Z,99326.63
2022-11-17T04:21:24.070Z,99336.13
2022-11-17T04:26:44.336Z,99339.63
2022-11-17T04:31:45.874Z,99311.91
2022-11-17T04:36:47.375Z,99333.56
2022-11-17T04:41:54.542Z,99330.16
2022-11-17T04:46:57.155Z,99315.44
2022-11-17T04:51:58.712Z,99312.88
2022-11-17T04:57:00.223Z,99300.75
2022-11-17T05:02:05.878Z,99305.09
2022-11-17T05:07:09.006Z,99310.16
2022-11-17T05:12:28.997Z,99305.84
2022-11-17T05:17:30.437Z,99283.25
2022-11-17T05:22:50.638Z,99281.47
2022-11-17T05:27:53.210Z,99301.19
2022-11-17T05:32:54.688Z,99282.09
2022-11-17T05:37:56.147Z,99289.00
2022-11-17T05:42:57.633Z,99283.78
2022-11-17T05:47:59.092Z,99286.31
2022-11-17T05:53:00.589Z,99286.19
2022-11-17T05:58:09.422Z,99280.03
2022-11-17T06:03:29.772Z,99261.97
2022-11-17T06:08:31.416Z,99263.66
2022-11-17T06:13:33.401Z,99254.06
2022-11-17T06:18:40.774Z,99259.22
2022-11-17T06:23:45.021Z,99243.66
2022-11-17T06:28:49.465Z,99256.56
2022-11-17T06:33:51.103Z,99237.38
2022-11-17T06:38:54.879Z,99230.38
2022-11-17T06:44:00.302Z,99213.03
2022-11-17T06:49:23.085Z,99225.94
2022-11-17T06:54:26.068Z,99227.59
2022-11-17T06:59:30.681Z,99235.19
2022-11-17T07:04:32.850Z,99213.63
2022-11-17T07:09:40.715Z,99215.28
2022-11-17T07:14:44.892Z,99206.56
2022-11-17T07:19:46.464Z,99203.06
2022-11-17T07:24:48.172Z,99201.28
2022-11-17T07:29:49.750Z,99200.41
2022-11-17T07:34:51.387Z,99199.50
2022-11-17T07:39:52.938Z,99181.28
2022-11-17T07:44:54.607Z,99163.97
2022-11-17T07:49:56.156Z,99149.28
2022-11-17T07:54:57.715Z,99149.16
2022-11-17T07:59:59.275Z,99142.22
2022-11-17T08:05:01.008Z,99148.25
2022-11-17T08:10:02.732Z,99161.16
2022-11-17T08:15:04.939Z,99165.50
2022-11-17T08:20:06.896Z,99164.53
2022-11-17T08:25:09.619Z,99165.41
2022-11-17T08:30:11.422Z,99179.94
2022-11-17T08:35:13.009Z,99155.75
2022-11-17T08:40:15.173Z,99166.94
2022-11-17T08:45:16.792Z,99179.91
2022-11-17T08:50:20.668Z,99189.44
2022-11-17T08:55:22.269Z,99190.28
2022-11-17T09:00:24.218Z,99172.13
2022-11-17T09:05:26.991Z,99181.56
2022-11-17T09:10:28.949Z,99175.53
2022-11-17T09:15:31.436Z,99181.59
2022-11-17T09:20:33.001Z,99197.16
2022-11-17T09:25:34.901Z,99180.72
2022-11-17T09:30:37.052Z,99169.34
2022-11-17T09:35:38.577Z,99173.66
2022-11-17T09:40:41.517Z,99176.31
2022-11-17T09:45:46.771Z,99190.16
2022-11-17T09:50:50.437Z,99196.13
2022-11-17T09:56:01.784Z,99201.41
2022-11-17T10:01:04.234Z,99184.19
2022-11-17T10:06:12.081Z,99170.41
2022-11-17T10:11:31.904Z,99182.44
2022-11-17T10:16:33.695Z,99193.72
2022-11-17T10:21:36.970Z,99197.28
2022-11-17T10:26:48.511Z,99196.38
2022-11-17T10:31:50.067Z,99194.66
2022-11-17T10:36:51.598Z,99192.06
2022-11-17T10:41:53.470Z,99186.91
2022-11-17T10:47:08.050Z,99187.78
2022-11-17T10:52:09.541Z,99179.19
2022-11-17T10:57:24.777Z,99174.00
2022-11-17T11:02:30.180Z,99188.72
2022-11-17T11:07:31.842Z,99175.75
2022-11-17T11:12:50.376Z,99175.72
2022-11-17T11:17:52.141Z,99182.75
2022-11-17T11:23:18.048Z,99170.63
2022-11-17T11:28:54.283Z,99180.22
2022-11-17T11:34:20.516Z,99187.09
2022-11-17T11:39:40.449Z,99182.00
2022-11-17T11:45:03.712Z,99169.13
2022-11-17T11:50:41.978Z,99181.16
2022-11-17T11:55:48.094Z,99180.34
2022-11-17T12:01:05.828Z,99185.59
2022-11-17T12:06:40.191Z,99194.22
2022-11-17T12:12:01.065Z,99209.81
2022-11-17T12:17:26.285Z,99203.78
2022-11-17T12:22:30.540Z,99209.88
2022-11-17T12:27:32.521Z,99220.25
2022-11-17T12:32:46.235Z,99202.16
2022-11-17T12:37:47.750Z,99207.38
2022-11-17T12:43:22.144Z,99213.53
2022-11-17T12:48:34.672Z,99222.09
2022-11-17T12:53:55.368Z,99219.59
2022-11-17T12:59:17.816Z,99223.13
2022-11-17T13:04:35.314Z,99223.13
2022-11-17T13:09:36.791Z,99221.38
2022-11-17T13:15:05.460Z,99212.75
2022-11-17T13:20:16.065Z,99212.69
2022-11-17T13:25:23.008Z,99219.72
2022-11-17T13:30:30.408Z,99219.75
2022-11-17T13:35:36.162Z,99219.75
2022-11-17T13:40:40.210Z,99226.66
2022-11-17T13:45:43.314Z,99231.09
2022-11-17T13:50:45.146Z,99235.34
2022-11-17T13:55:47.406Z,99233.69
2022-11-17T14:00:57.594Z,99232.81
2022-11-17T14:06:00.103Z,99237.13
2022-11-17T14:11:16.380Z,99245.78
2022-11-17T14:16:40.413Z,99245.72
2022-11-17T14:22:03.645Z,99246.63
2022-11-17T14:27:40.097Z,99249.28
2022-11-17T14:32:41.871Z,99256.13
2022-11-17T14:37:43.955Z,99252.75
2022-11-17T14:42:47.781Z,99263.97
2022-11-17T14:47:49.486Z,99251.91
2022-11-17T14:52:51.017Z,99260.53
2022-11-17T14:57:52.972Z,99268.34
2022-11-17T15:02:54.475Z,99271.81
2022-11-17T15:07:56.571Z,99283.88
2022-11-17T15:12:58.103Z,99282.94
2022-11-17T15:18:00.021Z,99296.78
2022-11-17T15:23:03.457Z,99290.84
2022-11-17T15:28:05.338Z,99291.72
2022-11-17T15:33:07.415Z,99293.47
2022-11-17T15:38:09.362Z,99302.94
2022-11-17T15:43:11.235Z,99304.69
2022-11-17T15:48:18.508Z,99290.84
2022-11-17T15:53:20.258Z,99314.94
2022-11-17T15:58:21.815Z,99314.97
2022-11-17T16:03:23.335Z,99322.75
2022-11-17T16:08:24.977Z,99323.72
2022-11-17T16:13:26.545Z,99329.72
2022-11-17T16:18:28.964Z,99345.34
2022-11-17T16:23:30.988Z,99335.88
2022-11-17T16:28:32.641Z,99340.09
2022-11-17T16:33:34.165Z,99339.25
2022-11-17T16:38:35.782Z,99337.63
2022-11-17T16:43:43.167Z,99341.09
2022-11-17T16:48:47.178Z,99343.69
2022-11-17T16:53:56.090Z,99334.13
2022-11-17T16:58:58.796Z,99349.75
2022-11-17T17:04:03.445Z,99353.97
2022-11-17T17:09:06.846Z,99353.22
2022-11-17T17:14:12.903Z,99372.22
2022-11-17T17:19:16.056Z,99367.09
2022-11-17T17:24:17.805Z,99376.63
2022-11-17T17:29:19.521Z,99374.00
2022-11-17T17:34:21.205Z,99378.44
2022-11-17T17:39:22.753Z,99394.81
2022-11-17T17:44:24.300Z,99405.16
2022-11-17T17:49:25.964Z,99389.66
2022-11-17T17:54:27.474Z,99397.41
2022-11-17T17:59:28.970Z,99408.69
2022-11-17T18:04:30.529Z,99393.94
2022-11-17T18:09:32.112Z,99398.34
2022-11-17T18:14:33.654Z,99410.47
2022-11-17T18:19:35.431Z,99421.78
2022-11-17T18:24:36.908Z,99428.69
2022-11-17T18:29:38.504Z,99428.63
2022-11-17T18:34:41.810Z,99435.53
2022-11-17T18:39:43.319Z,99445.06
2022-11-17T18:44:44.828Z,99440.69
2022-11-17T18:49:46.451Z,99447.66
2022-11-17T18:54:47.972Z,99445.06
2022-11-17T18:59:49.529Z,99451.06
2022-11-17T19:04:51.036Z,75008.06
2022-11-17T19:09:52.823Z,57128.34
2022-11-17T19:14:54.335Z,57128.34
2022-11-17T19:19:56.197Z,57128.34
2022-11-17T19:24:57.660Z,57128.34
2022-11-17T19:29:59.193Z,57128.34
2022-11-17T19:35:11.799Z,57128.34
2022-11-17T19:40:15.760Z,57128.34
2022-11-17T19:45:17.811Z,57128.34
2022-11-17T19:50:19.285Z,57128.34
2022-11-17T19:55:20.788Z,57128.34
2022-11-17T20:00:22.291Z,57128.34
2022-11-17T20:05:23.756Z,57128.34
2022-11-17T20:10:25.458Z,57128.34
2022-11-17T20:15:34.449Z,57128.34
2022-11-17T20:20:36.980Z,57128.34
2022-11-17T20:25:38.647Z,57128.34
2022-11-17T20:30:40.926Z,57128.34
2022-11-17T20:35:43.224Z,57128.34
2022-11-17T20:40:44.833Z,57128.34
2022-11-17T20:45:49.833Z,57128.34
2022-11-17T20:50:59.177Z,57128.34
2022-11-17T20:56:02.394Z,57128.34
2022-11-17T21:01:14.539Z,57128.34
2022-11-17T21:06:16.716Z,57128.34
2022-11-17T21:11:41.811Z,57128.34
2022-11-17T21:16:45.964Z,57128.34
2022-11-17T21:21:50.123Z,57128.34
2022-11-17T21:26:53.351Z,57128.34
2022-11-17T21:31:54.949Z,57128.34
2022-11-17T21:36:56.464Z,57128.34
2022-11-17T21:41:58.079Z,57128.34
2022-11-17T21:46:59.614Z,57128.34
2022-11-17T21:52:01.281Z,57128.34
2022-11-17T21:57:03.163Z,57128.34
2022-11-17T22:02:04.740Z,57128.34
2022-11-17T22:07:06.352Z,57128.34
2022-11-17T22:12:08.276Z,57128.34
2022-11-17T22:17:10.479Z,57128.34
2022-11-17T22:22:12.374Z,57128.34
2022-11-17T22:27:13.901Z,57128.34
2022-11-17T22:32:15.446Z,57128.34
2022-11-17T22:37:16.969Z,57128.34
2022-11-17T22:42:18.773Z,57128.34
2022-11-17T22:47:20.241Z,57128.34
2022-11-17T22:52:21.717Z,57128.34
2022-11-17T22:57:23.247Z,57128.34
2022-11-17T23:02:24.824Z,57128.34
2022-11-17T23:07:26.411Z,57128.34
2022-11-17T23:12:28.092Z,57128.34
2022-11-17T23:17:29.652Z,57128.34
2022-11-17T23:22:31.850Z,57128.34
2022-11-17T23:27:33.412Z,57128.34
2022-11-17T23:32:34.905Z,57128.34
2022-11-17T23:37:36.439Z,57128.34
2022-11-17T23:42:42.884Z,57128.34
2022-11-17T23:47:44.983Z,57128.34
2022-11-17T23:52:46.561Z,57128.34
2022-11-17T23:57:48.104Z,57128.34
